Time;durP1;ratioP1;P1;durP2;ratioP2;P2;SDS_P1;SDS_P2;PMS_P1;PMS_P2;Temp;Humidity;BMP_temperature;BMP_pressure;BME280_temperature;BME280_humidity;BME280_pressure;Samples;Min_cycle;Max_cycle;Signal;HPM_P1;HPM_P2
2023/01/27 00:00:41;;;;;;;26.83;9.05;;;;;;;-148.88;100.00;77770.34;5094019;28;20027;-83
2023/01/27 00:03:11;;;;;;;30.50;9.75;;;;;;;-148.88;100.00;77762.22;5095475;28;20023;-83
2023/01/27 00:05:37;;;;;;;31.55;9.90;;;;;;;-148.88;100.00;77774.41;5094380;28;20023;-83
2023/01/27 00:08:02;;;;;;;32.50;9.05;;;;;;;-148.88;100.00;77772.38;5094094;28;20020;-83
2023/01/27 00:10:30;;;;;;;28.05;10.02;;;;;;;-148.88;100.00;77770.34;5096203;28;20447;-83
2023/01/27 00:15:42;;;;;;;28.63;9.50;;;;;;;-148.88;100.00;77772.38;5103317;28;20096;-84
2023/01/27 00:18:07;;;;;;;30.10;9.50;;;;;;;-148.88;100.00;77776.44;5101890;28;20091;-84
2023/01/27 00:26:07;;;;;;;24.42;8.38;;;;;;;-148.88;100.00;77772.38;5102449;28;20030;-84
2023/01/27 00:28:35;;;;;;;25.67;8.55;;;;;;;-148.88;100.00;77776.44;5099636;28;20128;-84
2023/01/27 00:31:01;;;;;;;28.35;9.07;;;;;;;-148.88;100.00;77770.34;5099989;28;20107;-84
2023/01/27 00:33:26;;;;;;;20.58;8.93;;;;;;;-148.88;100.00;77772.38;5100917;28;20488;-84
2023/01/27 00:36:00;;;;;;;26.75;8.32;;;;;;;-148.88;100.00;77760.19;5094897;28;20035;-83
2023/01/27 00:38:26;;;;;;;;;;;;;;;-148.88;100.00;77766.28;5093358;28;20441;-84
2023/01/27 00:43:35;;;;;;;24.10;7.38;;;;;;;-148.88;100.00;77766.28;5098574;28;20528;-84
2023/01/27 00:46:01;;;;;;;25.23;9.10;;;;;;;-148.88;100.00;77766.28;5099140;28;20036;-84
2023/01/27 00:48:26;;;;;;;29.85;8.95;;;;;;;-148.88;100.00;77760.19;5098064;28;20030;-84
2023/01/27 00:50:52;;;;;;;30.00;8.75;;;;;;;-148.88;100.00;77762.22;5095921;28;20039;-84
2023/01/27 00:53:17;;;;;;;24.70;8.77;;;;;;;-148.88;100.00;77762.22;5096540;28;20012;-84
2023/01/27 00:55:42;;;;;;;26.48;9.25;;;;;;;-148.88;100.00;77770.34;5096285;28;20558;-84
2023/01/27 00:58:08;;;;;;;22.15;8.23;;;;;;;-148.88;100.00;77766.28;5098067;28;20073;-84
2023/01/27 01:00:33;;;;;;;25.25;8.93;;;;;;;-148.88;100.00;77756.13;5098134;28;20035;-84
2023/01/27 01:02:58;;;;;;;28.52;8.70;;;;;;;-148.88;100.00;77772.38;5096852;28;20016;-84
2023/01/27 01:05:24;;;;;;;26.63;8.90;;;;;;;-148.88;100.00;77776.44;5097171;28;20055;-84
2023/01/27 01:07:49;;;;;;;22.45;7.95;;;;;;;-148.88;100.00;77760.19;5097499;28;20046;-84
2023/01/27 01:10:15;;;;;;;27.77;9.68;;;;;;;-148.88;100.00;77768.31;5100001;22;20192;-94
2023/01/27 01:12:40;;;;;;;32.33;9.75;;;;;;;-148.88;100.00;77768.31;5079758;28;20040;-94
2023/01/27 01:15:06;;;;;;;28.25;9.73;;;;;;;-148.88;100.00;77776.44;5075953;28;20386;-92
2023/01/27 01:17:31;;;;;;;27.83;8.98;;;;;;;-148.88;100.00;77770.34;5075933;28;20475;-92
2023/01/27 01:19:56;;;;;;;31.80;10.98;;;;;;;-148.88;100.00;77774.41;5077128;28;20476;-92
2023/01/27 01:22:22;;;;;;;29.15;10.88;;;;;;;-148.88;100.00;77772.38;5076405;28;20023;-92
2023/01/27 01:24:47;;;;;;;26.08;9.00;;;;;;;-148.88;100.00;77768.31;5103297;22;20043;-88
2023/01/27 01:27:22;;;;;;;29.58;9.60;;;;;;;-148.88;100.00;77772.38;5056093;28;20510;-88
2023/01/27 01:29:47;;;;;;;32.60;9.25;;;;;;;-148.88;100.00;77764.25;5055096;28;20033;-88
2023/01/27 01:32:12;;;;;;;31.20;9.30;;;;;;;-148.88;100.00;77772.38;5055259;28;20112;-89
2023/01/27 01:34:38;;;;;;;26.95;9.27;;;;;;;-148.88;100.00;77764.25;5057488;28;20038;-89
2023/01/27 01:37:03;;;;;;;26.70;9.98;;;;;;;-148.88;100.00;77762.22;5059133;28;20397;-89
2023/01/27 01:39:30;;;;;;;32.20;11.90;;;;;;;-148.88;100.00;77760.19;5058928;28;20032;-88
2023/01/27 01:41:55;;;;;;;32.15;10.35;;;;;;;-148.88;100.00;77766.28;5058805;28;20020;-89
2023/01/27 01:44:23;;;;;;;27.77;9.32;;;;;;;-148.88;100.00;77758.16;5058640;28;20062;-88
2023/01/27 01:46:49;;;;;;;30.88;10.52;;;;;;;-148.88;100.00;77756.13;5059103;28;20028;-87
2023/01/27 01:49:17;;;;;;;27.30;8.95;;;;;;;-148.88;100.00;77745.97;5076598;28;20451;-88
2023/01/27 01:51:46;;;;;;;27.83;9.43;;;;;;;-148.88;100.00;77756.13;5076223;28;20077;-89
2023/01/27 01:54:22;;;;;;;30.20;10.52;;;;;;;-148.88;100.00;77752.06;5058462;28;20096;-87
2023/01/27 01:57:18;;;;;;;27.75;9.55;;;;;;;-148.88;100.00;77752.06;5059659;28;20062;-88
2023/01/27 01:59:55;;;;;;;27.73;9.95;;;;;;;-148.88;100.00;77743.94;5076284;28;20036;-88
2023/01/27 02:02:22;;;;;;;28.35;9.55;;;;;;;-148.88;100.00;77739.84;5076475;28;20038;-88
2023/01/27 02:04:55;;;;;;;28.77;10.57;;;;;;;-148.88;100.00;77743.94;5076461;28;20032;-88
2023/01/27 02:07:36;;;;;;;29.70;10.43;;;;;;;-148.88;100.00;77748.00;5058984;28;20036;-88
2023/01/27 02:10:01;;;;;;;30.23;9.95;;;;;;;-148.88;100.00;77748.00;5058384;28;20032;-88
2023/01/27 02:12:27;;;;;;;33.05;10.48;;;;;;;-148.88;100.00;77737.81;5076332;28;20021;-89
2023/01/27 02:14:53;;;;;;;33.10;10.98;;;;;;;-148.88;100.00;77743.94;5058576;28;20510;-88
2023/01/27 02:17:18;;;;;;;30.75;10.68;;;;;;;-148.88;100.00;77743.94;5076117;28;20043;-89
2023/01/27 02:19:56;;;;;;;30.00;9.25;;;;;;;-148.88;100.00;77731.72;5077763;28;20059;-88
2023/01/27 02:22:32;;;;;;;31.02;10.45;;;;;;;-148.88;100.00;77731.72;5058467;28;20059;-88
2023/01/27 02:25:08;;;;;;;33.45;10.10;;;;;;;-148.88;100.00;77727.66;5058067;28;20107;-88
2023/01/27 02:27:33;;;;;;;30.42;9.90;;;;;;;-148.88;100.00;77727.66;5058198;28;20017;-88
2023/01/27 02:29:58;;;;;;;31.20;10.00;;;;;;;-148.88;100.00;77723.59;5057847;28;20028;-88
2023/01/27 02:32:25;;;;;;;34.42;10.55;;;;;;;-148.88;100.00;77725.63;5075948;28;20467;-89
2023/01/27 02:34:54;;;;;;;32.17;9.93;;;;;;;-148.88;100.00;77723.59;5057889;28;20032;-89
2023/01/27 02:37:20;;;;;;;27.27;9.65;;;;;;;-148.88;100.00;77727.66;5075980;28;20052;-90
2023/01/27 02:39:49;;;;;;;31.77;9.68;;;;;;;-148.88;100.00;77731.72;5057694;28;20027;-88
2023/01/27 02:42:16;;;;;;;28.67;10.00;;;;;;;-148.88;100.00;77723.59;5057818;28;20497;-89
2023/01/27 02:44:42;;;;;;;27.42;9.82;;;;;;;-148.88;100.00;77721.56;5057819;28;20115;-89
2023/01/27 02:47:07;;;;;;;27.00;9.70;;;;;;;-148.88;100.00;77729.69;5058390;28;20055;-89
2023/01/27 02:49:32;;;;;;;28.13;9.60;;;;;;;-148.88;100.00;77725.63;5075724;28;20471;-90
2023/01/27 02:51:57;;;;;;;27.98;9.93;;;;;;;-148.88;100.00;77723.59;5057882;28;20035;-89
2023/01/27 02:54:25;;;;;;;23.52;9.48;;;;;;;-148.88;100.00;77719.53;5057372;28;20057;-89
2023/01/27 02:56:50;;;;;;;27.02;9.63;;;;;;;-148.88;100.00;77723.59;5057406;28;20368;-89
2023/01/27 02:59:16;;;;;;;21.98;8.55;;;;;;;-148.88;100.00;77727.66;5057516;28;20024;-90
2023/01/27 03:01:41;;;;;;;23.88;7.95;;;;;;;-148.88;100.00;77723.59;5057567;28;20035;-89
2023/01/27 03:04:08;;;;;;;24.60;9.15;;;;;;;-148.88;100.00;77731.72;5057353;28;20020;-88
2023/01/27 03:06:33;;;;;;;22.00;8.10;;;;;;;-148.88;100.00;77727.66;5057684;28;20021;-88
2023/01/27 03:08:58;;;;;;;22.75;8.18;;;;;;;-148.88;100.00;77731.72;5057919;28;20035;-90
2023/01/27 03:14:08;;;;;;;22.02;8.05;;;;;;;-148.88;100.00;77733.75;5075136;28;20031;-89
2023/01/27 03:19:17;;;;;;;24.80;7.90;;;;;;;-148.88;100.00;77739.84;5075668;28;20035;-89
2023/01/27 03:21:44;;;;;;;20.35;8.20;;;;;;;-148.88;100.00;77729.69;5057133;28;20029;-87
2023/01/27 03:24:09;;;;;;;22.00;7.35;;;;;;;-148.88;100.00;77731.72;5057102;28;20035;-89
2023/01/27 03:26:37;;;;;;;20.92;6.68;;;;;;;-148.88;100.00;77733.75;5076891;28;20028;-89
2023/01/27 03:31:47;;;;;;;19.00;7.43;;;;;;;-148.88;100.00;77729.69;5079382;28;20051;-91
2023/01/27 03:34:12;;;;;;;17.60;7.32;;;;;;;-148.88;100.00;77731.72;5082483;28;20020;-91
2023/01/27 03:47:33;;;;;;;;;;;;;;;-148.88;100.00;77725.63;5075084;28;20062;-92
2023/01/27 03:50:12;;;;;;;17.20;7.13;;;;;;;-148.88;100.00;77723.59;5074611;28;19912;-92
2023/01/27 03:52:38;;;;;;;22.85;7.38;;;;;;;-148.88;100.00;77721.56;5056765;28;20277;-93
2023/01/27 03:55:25;;;;;;;17.85;7.00;;;;;;;-148.88;100.00;77725.63;5075275;28;20050;-91
2023/01/27 03:58:19;;;;;;;18.52;7.40;;;;;;;-148.88;100.00;77723.59;5076663;28;20453;-92
2023/01/27 04:01:02;;;;;;;19.33;7.65;;;;;;;-148.88;100.00;77719.53;5078230;28;20036;-91
2023/01/27 04:09:14;;;;;;;19.05;7.65;;;;;;;-148.88;100.00;77727.66;5077290;28;20030;-91
2023/01/27 04:11:58;;;;;;;19.10;7.72;;;;;;;-148.88;100.00;77723.59;5057526;28;20031;-93
2023/01/27 04:14:44;;;;;;;19.55;7.90;;;;;;;-148.88;100.00;77731.72;5062525;28;20043;-92
2023/01/27 04:17:41;;;;;;;18.00;6.90;;;;;;;-148.88;100.00;77727.66;5058682;28;20032;-90
2023/01/27 04:20:30;;;;;;;15.38;6.78;;;;;;;-148.88;100.00;77727.66;5060061;28;20024;-92
2023/01/27 04:23:01;;;;;;;18.88;5.90;;;;;;;-148.88;100.00;77717.50;5078688;28;20166;-90
2023/01/27 04:25:26;;;;;;;18.60;7.20;;;;;;;-148.88;100.00;77723.59;5075094;28;20032;-90
2023/01/27 04:27:55;;;;;;;15.27;7.00;;;;;;;-148.88;100.00;77719.53;5056672;28;20371;-90
2023/01/27 04:30:21;;;;;;;13.40;6.28;;;;;;;-148.88;100.00;77717.50;5056845;28;20391;-89
2023/01/27 04:32:46;;;;;;;17.48;6.32;;;;;;;-148.88;100.00;77717.50;5055806;28;20483;-90
2023/01/27 04:35:12;;;;;;;16.67;6.75;;;;;;;-148.88;100.00;77715.47;5073667;28;20040;-91
2023/01/27 04:37:37;;;;;;;14.45;6.32;;;;;;;-148.88;100.00;77723.59;5055519;28;20025;-90
2023/01/27 04:40:03;;;;;;;16.15;6.47;;;;;;;-148.88;100.00;77725.63;5073860;28;20024;-89
2023/01/27 04:42:34;;;;;;;17.20;6.50;;;;;;;-148.88;100.00;77725.63;5073745;28;20051;-89
2023/01/27 04:45:05;;;;;;;16.17;6.20;;;;;;;-148.88;100.00;77721.56;5055722;28;20588;-89
2023/01/27 04:47:31;;;;;;;19.17;7.47;;;;;;;-148.88;100.00;77727.66;5056300;28;20386;-89
2023/01/27 04:49:56;;;;;;;16.88;6.18;;;;;;;-148.88;100.00;77719.53;5056283;28;20116;-90
2023/01/27 04:52:21;;;;;;;16.90;6.05;;;;;;;-148.88;100.00;77721.56;5056843;28;20027;-90
2023/01/27 04:54:48;;;;;;;13.00;5.70;;;;;;;-148.88;100.00;77721.56;5096039;28;20048;-90
2023/01/27 04:57:13;;;;;;;11.93;4.68;;;;;;;-148.88;100.00;77719.53;5075477;28;20024;-89
2023/01/27 04:59:39;;;;;;;13.15;5.65;;;;;;;-148.88;100.00;77719.53;5073630;28;20199;-89
2023/01/27 05:02:10;;;;;;;16.30;5.75;;;;;;;-148.88;100.00;77723.59;5055557;28;20155;-91
2023/01/27 05:04:35;;;;;;;13.38;5.40;;;;;;;-148.88;100.00;77715.47;5056346;28;20028;-90
2023/01/27 05:07:01;;;;;;;15.70;5.25;;;;;;;-148.88;100.00;77729.69;5073621;28;20497;-89
2023/01/27 05:09:26;;;;;;;11.43;4.78;;;;;;;-148.88;100.00;77727.66;5058976;28;20016;-90
2023/01/27 05:11:52;;;;;;;13.60;5.18;;;;;;;-148.88;100.00;77725.63;5059460;28;20021;-91
2023/01/27 05:14:22;;;;;;;10.82;4.70;;;;;;;-148.88;100.00;77727.66;5077230;28;20391;-90
2023/01/27 05:16:47;;;;;;;10.05;4.40;;;;;;;-148.88;100.00;77723.59;5059218;28;20021;-90
2023/01/27 05:19:12;;;;;;;9.65;4.38;;;;;;;-148.88;100.00;77725.63;5059484;28;20461;-90
2023/01/27 05:21:38;;;;;;;10.15;4.60;;;;;;;-148.88;100.00;77719.53;5077144;28;20025;-89
2023/01/27 05:24:24;;;;;;;9.90;4.05;;;;;;;-148.88;100.00;77723.59;5059310;28;20379;-90
2023/01/27 05:26:49;;;;;;;8.68;3.97;;;;;;;-148.88;100.00;77723.59;5076869;28;20470;-90
2023/01/27 05:29:14;;;;;;;10.90;3.97;;;;;;;-148.88;100.00;77721.56;5060387;28;20506;-90
2023/01/27 05:31:40;;;;;;;10.55;4.07;;;;;;;-148.88;100.00;77719.53;5076645;28;20027;-89
2023/01/27 05:34:05;;;;;;;9.23;3.85;;;;;;;-148.88;100.00;77721.56;5076347;28;20060;-89
2023/01/27 05:36:30;;;;;;;10.52;4.80;;;;;;;-148.88;100.00;77723.59;5059092;28;20016;-89
2023/01/27 05:39:13;;;;;;;11.27;4.60;;;;;;;-148.88;100.00;77725.63;5077789;28;20099;-90
2023/01/27 05:41:41;;;;;;;11.80;5.03;;;;;;;-148.88;100.00;77713.44;5076716;28;20025;-87
2023/01/27 05:44:11;;;;;;;10.85;4.68;;;;;;;-148.88;100.00;77711.41;5059186;28;20047;-86
2023/01/27 05:46:39;;;;;;;13.02;5.10;;;;;;;-148.88;100.00;77723.59;5059772;28;20030;-87
2023/01/27 05:49:04;;;;;;;12.07;5.00;;;;;;;-148.88;100.00;77723.59;5058376;28;20020;-86
2023/01/27 05:51:32;;;;;;;12.13;4.60;;;;;;;-148.88;100.00;77727.66;5060332;28;20093;-86
2023/01/27 05:53:57;;;;;;;10.27;4.75;;;;;;;-148.88;100.00;77721.56;5060423;28;20020;-86
2023/01/27 05:56:25;;;;;;;12.27;5.85;;;;;;;-148.88;100.00;77725.63;5059675;28;20029;-87
2023/01/27 05:58:52;;;;;;;10.15;4.10;;;;;;;-148.88;100.00;77723.59;5059365;28;20486;-87
2023/01/27 06:01:21;;;;;;;9.63;4.35;;;;;;;-148.88;100.00;77719.53;5058408;28;20025;-87
2023/01/27 06:03:47;;;;;;;9.32;3.90;;;;;;;-148.88;100.00;77727.66;5058651;28;20042;-89
2023/01/27 06:06:15;;;;;;;11.32;4.25;;;;;;;-148.88;100.00;77723.59;5059995;28;20024;-88
2023/01/27 06:08:40;;;;;;;10.77;4.10;;;;;;;-148.88;100.00;77727.66;5059389;28;20071;-88
2023/01/27 06:11:11;;;;;;;10.80;3.92;;;;;;;-148.88;100.00;77731.72;5060290;28;20029;-88
2023/01/27 06:13:37;;;;;;;9.00;4.18;;;;;;;-148.88;100.00;77731.72;5059972;28;20032;-88
2023/01/27 06:16:11;;;;;;;9.45;4.28;;;;;;;-148.88;100.00;77733.75;5058429;28;20398;-88
2023/01/27 06:18:38;;;;;;;11.40;4.55;;;;;;;-148.88;100.00;77731.72;5058871;28;20025;-88
2023/01/27 06:24:15;;;;;;;11.60;4.38;;;;;;;-148.88;100.00;77731.72;5076034;28;20035;-88
2023/01/27 06:26:40;;;;;;;7.82;3.15;;;;;;;-148.88;100.00;77731.72;5058350;28;20047;-87
2023/01/27 06:29:05;;;;;;;7.88;3.78;;;;;;;-148.88;100.00;77735.78;5058133;28;20017;-88
2023/01/27 06:31:31;;;;;;;8.52;3.53;;;;;;;-148.88;100.00;77737.81;5057949;28;20028;-88
2023/01/27 06:33:56;;;;;;;8.10;3.75;;;;;;;-148.88;100.00;77735.78;5057206;28;20036;-88
2023/01/27 06:36:21;;;;;;;7.50;3.40;;;;;;;-148.88;100.00;77735.78;5058290;28;20028;-88
2023/01/27 06:38:48;;;;;;;9.10;4.13;;;;;;;-148.88;100.00;77731.72;5057502;28;20390;-88
2023/01/27 06:41:13;;;;;;;8.27;3.70;;;;;;;-148.88;100.00;77737.81;5057274;28;20127;-87
2023/01/27 06:43:39;;;;;;;7.75;3.85;;;;;;;-148.88;100.00;77743.94;5057214;28;20017;-87
2023/01/27 06:46:04;;;;;;;10.45;4.57;;;;;;;-148.88;100.00;77745.97;5057449;28;20032;-88
2023/01/27 06:48:29;;;;;;;10.15;3.92;;;;;;;-148.88;100.00;77748.00;5056957;28;20055;-86
2023/01/27 06:50:55;;;;;;;10.23;4.15;;;;;;;-148.88;100.00;77735.78;5074965;28;20416;-87
2023/01/27 06:53:22;;;;;;;11.50;4.03;;;;;;;-148.88;100.00;77748.00;5056852;28;20031;-85
2023/01/27 06:55:53;;;;;;;9.93;4.15;;;;;;;-148.88;100.00;77741.88;5074664;28;20507;-87
2023/01/27 06:58:18;;;;;;;11.85;4.50;;;;;;;-148.88;100.00;77741.88;5057376;28;20489;-87
2023/01/27 07:00:44;;;;;;;11.85;5.05;;;;;;;-148.88;100.00;77748.00;5057203;28;20109;-87
2023/01/27 07:03:11;;;;;;;9.82;4.70;;;;;;;-148.88;100.00;77743.94;5056758;28;20026;-87
2023/01/27 07:05:38;;;;;;;10.48;4.82;;;;;;;-148.88;100.00;77743.94;5056689;28;20059;-87
2023/01/27 07:08:04;;;;;;;12.27;5.18;;;;;;;-148.88;100.00;77745.97;5074650;28;20017;-87
2023/01/27 07:10:29;;;;;;;10.25;5.03;;;;;;;-148.88;100.00;77743.94;5056564;28;20023;-87
2023/01/27 07:13:04;;;;;;;12.43;5.28;;;;;;;-148.88;100.00;77748.00;5056260;28;20028;-87
2023/01/27 07:15:31;;;;;;;14.70;4.68;;;;;;;-148.88;100.00;77748.00;5056395;28;20021;-87
2023/01/27 07:17:57;;;;;;;14.23;5.88;;;;;;;-148.88;100.00;77748.00;5056319;28;20020;-87
2023/01/27 07:20:26;;;;;;;14.52;6.15;;;;;;;-148.88;100.00;77760.19;5074764;28;20414;-87
2023/01/27 07:22:52;;;;;;;13.93;5.32;;;;;;;-148.88;100.00;77752.06;5056227;28;20044;-87
2023/01/27 07:25:17;;;;;;;13.18;5.28;;;;;;;-148.88;100.00;77756.13;5056389;28;20065;-87
2023/01/27 07:27:42;;;;;;;14.27;6.18;;;;;;;-148.88;100.00;77760.19;5056411;28;20556;-86
2023/01/27 07:30:20;;;;;;;15.05;5.57;;;;;;;-148.88;100.00;77760.19;5057226;28;20487;-87
2023/01/27 07:33:00;;;;;;;13.23;6.03;;;;;;;-148.88;100.00;77754.09;5056293;28;20373;-85
2023/01/27 07:35:25;;;;;;;12.30;5.20;;;;;;;-148.88;100.00;77748.00;5055726;28;20510;-86
2023/01/27 07:37:58;;;;;;;10.88;5.30;;;;;;;-148.88;100.00;77756.13;5056585;28;20032;-86
2023/01/27 07:40:27;;;;;;;12.35;5.63;;;;;;;-148.88;100.00;77772.38;5056615;28;20479;-86
2023/01/27 07:43:12;;;;;;;;;;;;;;;;;;;;;
2023/01/27 07:45:55;;;;;;;11.93;5.53;;;;;;;-148.88;100.00;77762.22;5074549;28;20024;-86
2023/01/27 07:48:42;;;;;;;10.77;5.25;;;;;;;-148.88;100.00;77776.44;5056984;28;20039;-86
2023/01/27 07:51:23;;;;;;;11.05;5.07;;;;;;;-148.88;100.00;77780.50;5058114;28;20031;-87
2023/01/27 07:53:50;;;;;;;13.65;5.63;;;;;;;-148.88;100.00;77784.56;5064654;23;20041;-78
2023/01/27 07:56:16;;;;;;;14.75;6.25;;;;;;;-148.88;100.00;77774.41;5072433;28;20029;-78
2023/01/27 07:58:41;;;;;;;13.60;6.13;;;;;;;-148.88;100.00;77784.56;5073110;28;20367;-78
2023/01/27 08:01:08;;;;;;;16.38;6.63;;;;;;;-148.88;100.00;77788.63;5075501;28;20429;-78
2023/01/27 08:03:34;;;;;;;12.98;6.07;;;;;;;-148.88;100.00;77794.72;5075776;28;20020;-77
2023/01/27 08:06:10;;;;;;;14.88;5.90;;;;;;;-148.88;100.00;77792.69;5077239;28;20028;-78
2023/01/27 08:08:36;;;;;;;14.88;6.93;;;;;;;-148.88;100.00;77800.81;5079504;28;20036;-78
2023/01/27 08:11:04;;;;;;;14.73;7.00;;;;;;;-148.88;100.00;77796.75;5079473;28;20135;-78
2023/01/27 08:13:30;;;;;;;15.02;6.85;;;;;;;-148.88;100.00;77794.72;5074625;28;20027;-77
2023/01/27 08:15:59;;;;;;;16.48;6.95;;;;;;;-148.88;100.00;77800.81;5072932;28;20037;-77
2023/01/27 08:18:27;;;;;;;13.55;6.45;;;;;;;-148.88;100.00;77800.81;5071955;28;20020;-77
2023/01/27 08:20:53;;;;;;;15.27;7.38;;;;;;;-148.88;100.00;77792.69;5071552;28;20093;-77
2023/01/27 08:23:22;;;;;;;14.07;6.18;;;;;;;-148.88;100.00;77798.78;5071434;28;20022;-77
2023/01/27 08:25:49;;;;;;;12.40;5.95;;;;;;;-148.88;100.00;77792.69;5072722;28;20390;-77
2023/01/27 08:28:14;;;;;;;13.77;6.80;;;;;;;-148.88;100.00;77800.81;5072827;28;20109;-77
2023/01/27 08:30:40;;;;;;;12.13;5.82;;;;;;;-148.88;100.00;77808.97;5072739;28;20075;-77
2023/01/27 08:33:05;;;;;;;12.48;5.50;;;;;;;-148.88;100.00;77806.94;5072515;28;20012;-77
2023/01/27 08:35:30;;;;;;;15.73;6.70;;;;;;;-148.88;100.00;77804.88;5072883;28;20433;-77
2023/01/27 08:37:56;;;;;;;13.50;5.88;;;;;;;-148.88;100.00;77800.81;5072639;28;20024;-77
2023/01/27 08:40:21;;;;;;;12.18;5.60;;;;;;;-148.88;100.00;77804.88;5072987;28;20675;-77
2023/01/27 08:42:49;;;;;;;13.15;5.55;;;;;;;-148.88;100.00;77808.97;5072088;28;20422;-77
2023/01/27 08:45:14;;;;;;;11.07;5.35;;;;;;;-148.88;100.00;77811.00;5071280;28;20234;-77
2023/01/27 08:47:39;;;;;;;10.32;4.75;;;;;;;-148.88;100.00;77804.88;5072621;28;20136;-77
2023/01/27 08:50:06;;;;;;;12.13;5.40;;;;;;;-148.88;100.00;77817.09;5072636;28;20024;-77
2023/01/27 08:52:31;;;;;;;11.05;5.30;;;;;;;-148.88;100.00;77821.16;5071114;28;20066;-77
2023/01/27 08:54:57;;;;;;;12.05;5.50;;;;;;;-148.88;100.00;77825.22;5072498;28;20115;-77
2023/01/27 08:57:23;;;;;;;11.32;4.53;;;;;;;-148.88;100.00;77823.19;5071170;28;20311;-77
2023/01/27 08:59:49;;;;;;;9.43;4.53;;;;;;;-148.88;100.00;77823.19;5072437;28;20024;-77
2023/01/27 09:02:14;;;;;;;9.27;4.45;;;;;;;-148.88;100.00;77819.13;5072439;28;20027;-77
2023/01/27 09:04:42;;;;;;;9.13;4.45;;;;;;;-148.88;100.00;77831.31;5072491;28;20056;-77
2023/01/27 09:07:08;;;;;;;10.65;4.38;;;;;;;-148.88;100.00;77825.22;5071316;28;20092;-77
2023/01/27 09:09:33;;;;;;;7.38;3.42;;;;;;;-148.88;100.00;77829.28;5072328;28;20493;-77
2023/01/27 09:11:58;;;;;;;10.18;3.65;;;;;;;-148.88;100.00;77829.28;5072336;28;20020;-77
2023/01/27 09:14:24;;;;;;;8.23;3.75;;;;;;;-148.88;100.00;77835.38;5070897;28;20357;-77
2023/01/27 09:16:49;;;;;;;7.32;3.38;;;;;;;-148.88;100.00;77829.28;5072163;28;20090;-77
2023/01/27 09:19:14;;;;;;;8.00;3.92;;;;;;;-148.88;100.00;77841.47;5072614;28;20043;-78
2023/01/27 09:21:40;;;;;;;7.28;3.55;;;;;;;-148.88;100.00;77833.34;5072864;28;20025;-77
2023/01/27 09:24:05;;;;;;;6.68;3.03;;;;;;;-148.88;100.00;77833.34;5073106;28;20021;-77
2023/01/27 09:26:30;;;;;;;5.63;2.92;;;;;;;-148.88;100.00;77825.22;5072585;28;20412;-77
2023/01/27 09:28:55;;;;;;;6.95;2.78;;;;;;;-148.88;100.00;77823.19;5071325;28;20037;-77
2023/01/27 09:31:21;;;;;;;6.82;3.13;;;;;;;-148.88;100.00;77817.09;5071237;28;20028;-77
2023/01/27 09:33:46;;;;;;;8.20;3.03;;;;;;;-148.88;100.00;77821.16;5072480;28;20027;-77
2023/01/27 09:36:16;;;;;;;7.38;3.20;;;;;;;-148.88;100.00;77821.16;5071291;28;20033;-77
2023/01/27 09:39:04;;;;;;;6.43;2.42;;;;;;;-148.88;100.00;77827.25;5071262;28;20097;-77
2023/01/27 09:41:42;;;;;;;5.25;2.67;;;;;;;-148.88;100.00;77833.34;5071221;28;20017;-78
2023/01/27 09:44:51;;;;;;;5.78;2.55;;;;;;;-148.88;100.00;77823.19;5072484;28;20058;-77
2023/01/27 09:47:41;;;;;;;6.65;3.42;;;;;;;-148.88;100.00;77833.34;5071479;28;20393;-77
2023/01/27 09:50:38;;;;;;;5.10;2.40;;;;;;;-148.88;100.00;77833.34;5072466;28;20494;-77
2023/01/27 09:53:15;;;;;;;5.68;2.80;;;;;;;-148.88;100.00;77839.44;5070939;28;20028;-77
2023/01/27 09:55:50;;;;;;;4.50;2.45;;;;;;;-148.88;100.00;77835.38;5074656;28;20032;-77
2023/01/27 09:58:35;;;;;;;5.38;2.63;;;;;;;-148.88;100.00;77833.34;5076225;28;20492;-77
2023/01/27 10:01:03;;;;;;;5.32;2.72;;;;;;;-148.88;100.00;77829.28;5076228;28;20115;-77
2023/01/27 10:03:34;;;;;;;7.20;2.90;;;;;;;-148.88;100.00;77825.22;5074471;28;20028;-77
2023/01/27 10:05:59;;;;;;;5.63;2.42;;;;;;;-148.88;100.00;77817.09;5075796;28;20020;-77
2023/01/27 10:09:09;;;;;;;3.83;2.33;;;;;;;-148.88;100.00;77817.09;5075818;28;20359;-77
2023/01/27 10:11:50;;;;;;;5.18;2.53;;;;;;;-148.88;100.00;77815.06;5075716;28;20265;-77
2023/01/27 10:14:37;;;;;;;4.22;2.28;;;;;;;-148.88;100.00;77800.81;5075647;28;20362;-77
2023/01/27 10:17:23;;;;;;;4.95;2.00;;;;;;;-148.88;100.00;77806.94;5075833;28;20033;-77
2023/01/27 10:20:25;;;;;;;4.65;2.55;;;;;;;-148.88;100.00;77806.94;5074219;28;20505;-78
2023/01/27 10:23:12;;;;;;;3.88;1.83;;;;;;;-148.88;100.00;77808.97;5075375;28;20485;-77
2023/01/27 10:25:56;;;;;;;3.00;1.90;;;;;;;-148.88;100.00;77825.22;5074168;28;20024;-76
2023/01/27 10:28:25;;;;;;;3.78;1.98;;;;;;;-148.88;100.00;77825.22;5074094;28;20059;-77
2023/01/27 10:31:07;;;;;;;3.97;1.40;;;;;;;-148.88;100.00;77821.16;5075396;28;20028;-77
2023/01/27 10:33:49;;;;;;;4.05;1.70;;;;;;;-148.88;100.00;77821.16;5075115;28;20035;-77
2023/01/27 10:36:28;;;;;;;3.60;1.65;;;;;;;-148.88;100.00;77808.97;5075423;28;20052;-77
2023/01/27 10:39:08;;;;;;;3.15;1.42;;;;;;;-148.88;100.00;77813.03;5075273;28;20028;-77
2023/01/27 10:41:46;;;;;;;3.97;1.27;;;;;;;-148.88;100.00;77802.84;5075326;28;20033;-77
2023/01/27 10:44:33;;;;;;;2.60;1.40;;;;;;;-148.88;100.00;77808.97;5075246;28;20016;-78
2023/01/27 10:47:05;;;;;;;1.67;1.02;;;;;;;-148.88;100.00;77817.09;5074366;28;20146;-77
2023/01/27 10:49:38;;;;;;;3.13;1.45;;;;;;;-148.88;100.00;77800.81;5073693;28;20020;-77
2023/01/27 10:52:33;;;;;;;2.07;1.17;;;;;;;-148.88;100.00;77804.88;5075245;28;20040;-77
2023/01/27 10:55:27;;;;;;;2.40;1.30;;;;;;;-148.88;100.00;77806.94;5059434;28;20182;-77
2023/01/27 10:58:27;;;;;;;2.30;1.25;;;;;;;-148.88;100.00;77798.78;5074829;28;20120;-77
2023/01/27 11:00:54;;;;;;;3.30;1.50;;;;;;;-148.88;100.00;77782.53;5012911;28;20076;-77
2023/01/27 11:03:46;;;;;;;2.58;1.30;;;;;;;-148.88;100.00;77784.56;5062392;28;20028;-77
2023/01/27 11:06:19;;;;;;;4.38;1.60;;;;;;;-148.88;100.00;77776.44;5067440;28;20446;-77
2023/01/27 11:08:49;;;;;;;4.85;1.58;;;;;;;-148.88;100.00;77762.22;5073402;28;20111;-77
2023/01/27 11:14:11;;;;;;;2.55;1.33;;;;;;;-148.88;100.00;77760.19;5074493;28;20040;-77
2023/01/27 11:16:42;;;;;;;3.55;1.70;;;;;;;-148.88;100.00;77756.13;5073228;28;20093;-77
2023/01/27 11:19:29;;;;;;;5.30;2.67;;;;;;;-148.88;100.00;77762.22;5074703;28;20027;-77
2023/01/27 11:21:55;;;;;;;4.10;2.10;;;;;;;-148.88;100.00;77754.09;5073046;28;20393;-77
2023/01/27 11:24:46;;;;;;;3.92;1.60;;;;;;;-148.88;100.00;77768.31;5074256;28;20074;-77
2023/01/27 11:27:24;;;;;;;5.03;1.63;;;;;;;-148.88;100.00;77756.13;5074744;28;20031;-77
2023/01/27 11:30:07;;;;;;;2.22;1.35;;;;;;;-148.88;100.00;77760.19;5072893;28;20070;-77
2023/01/27 11:32:58;;;;;;;2.38;1.27;;;;;;;-148.88;100.00;77770.34;5072792;28;20029;-77
2023/01/27 11:35:24;;;;;;;1.75;1.00;;;;;;;-148.88;100.00;77760.19;5074120;28;20032;-77
2023/01/27 11:37:51;;;;;;;3.20;1.52;;;;;;;-148.88;100.00;77772.38;5074315;28;20024;-77
2023/01/27 11:40:38;;;;;;;2.70;1.50;;;;;;;-148.88;100.00;77776.44;5072607;28;20065;-78
2023/01/27 11:43:04;;;;;;;4.45;1.50;;;;;;;-148.88;100.00;77772.38;5073863;28;20103;-77
2023/01/27 11:45:32;;;;;;;4.03;1.35;;;;;;;-148.88;100.00;77772.38;5074490;28;20035;-77
2023/01/27 11:47:59;;;;;;;3.78;2.10;;;;;;;-148.88;100.00;77772.38;5072512;28;20035;-77
2023/01/27 11:50:30;;;;;;;3.20;1.48;;;;;;;-148.88;100.00;77776.44;5072872;28;20028;-77
2023/01/27 11:53:05;;;;;;;3.55;1.58;;;;;;;-148.88;100.00;77764.25;5072503;28;20131;-77
2023/01/27 11:55:39;;;;;;;3.05;1.20;;;;;;;-148.88;100.00;77752.06;5073862;28;20040;-77
2023/01/27 11:58:21;;;;;;;2.72;1.27;;;;;;;-148.88;100.00;77764.25;5073968;28;20031;-77
2023/01/27 12:00:53;;;;;;;4.38;1.50;;;;;;;-148.88;100.00;77760.19;5073925;28;20037;-77